createdAt,value
2017-09-02T00:02:03.069Z,86.80
2017-09-02T00:04:30.685Z,86.70
2017-09-02T00:06:58.192Z,86.40
2017-09-02T00:09:25.713Z,86.40
2017-09-02T00:11:53.209Z,86.30
2017-09-02T00:14:20.800Z,86.40
2017-09-02T00:16:48.306Z,86.80
2017-09-02T00:19:15.828Z,87.00
2017-09-02T00:21:43.361Z,86.80
2017-09-02T00:24:10.861Z,86.90
2017-09-02T00:26:38.360Z,86.80
2017-09-02T00:29:05.965Z,86.80
2017-09-02T00:31:33.502Z,86.90
2017-09-02T00:34:01.036Z,86.80
2017-09-02T00:36:28.570Z,86.80
2017-09-02T00:38:56.113Z,87.00
2017-09-02T00:41:23.611Z,87.10
2017-09-02T00:43:51.117Z,86.70
2017-09-02T00:46:18.659Z,86.40
2017-09-02T00:48:46.161Z,86.20
2017-09-02T00:51:13.751Z,86.10
2017-09-02T00:53:41.341Z,86.00
2017-09-02T00:56:09.697Z,85.90
2017-09-02T00:58:37.196Z,85.90
2017-09-02T01:01:04.705Z,85.80
2017-09-02T01:03:32.285Z,85.70
2017-09-02T01:05:59.785Z,85.60
2017-09-02T01:08:27.400Z,85.40
2017-09-02T01:10:54.897Z,85.40
2017-09-02T01:13:22.418Z,85.30
2017-09-02T01:15:49.989Z,85.60
2017-09-02T01:18:17.527Z,85.50
2017-09-02T01:20:45.082Z,85.40
2017-09-02T01:23:12.609Z,85.60
2017-09-02T01:25:40.120Z,85.60
2017-09-02T01:28:07.686Z,85.80
2017-09-02T01:30:39.110Z,85.80
2017-09-02T01:33:06.624Z,85.90
2017-09-02T01:35:34.134Z,85.80
2017-09-02T01:38:01.649Z,85.60
2017-09-02T01:40:29.156Z,85.70
2017-09-02T01:42:56.673Z,86.00
2017-09-02T01:45:24.160Z,86.20
2017-09-02T01:47:51.695Z,85.90
2017-09-02T01:50:19.961Z,86.30
2017-09-02T01:52:47.470Z,87.10
2017-09-02T01:55:14.979Z,86.30
2017-09-02T01:57:42.555Z,86.50
2017-09-02T02:00:10.123Z,86.50
2017-09-02T02:02:37.617Z,87.40
2017-09-02T02:05:05.136Z,86.40
2017-09-02T02:07:32.632Z,86.50
2017-09-02T02:10:00.130Z,86.70
2017-09-02T02:12:27.652Z,86.80
2017-09-02T02:14:55.148Z,86.90
2017-09-02T02:17:22.720Z,86.80
2017-09-02T02:19:50.312Z,86.80
2017-09-02T02:22:17.820Z,86.90
2017-09-02T02:24:45.453Z,86.70
2017-09-02T02:27:12.985Z,86.80
2017-09-02T02:29:40.480Z,86.60
2017-09-02T02:32:07.984Z,86.30
2017-09-02T02:34:35.511Z,87.10
2017-09-02T02:37:03.008Z,86.30
2017-09-02T02:39:30.503Z,86.40
2017-09-02T02:41:58.255Z,86.40
2017-09-02T02:44:25.781Z,86.30
2017-09-02T02:46:53.316Z,86.40
2017-09-02T02:49:20.819Z,86.60
2017-09-02T02:51:48.358Z,86.90
2017-09-02T02:54:15.991Z,87.20
2017-09-02T02:56:43.524Z,87.30
2017-09-02T02:59:11.015Z,87.80
2017-09-02T03:01:38.527Z,89.00
2017-09-02T03:04:06.063Z,88.20
2017-09-02T03:06:33.612Z,88.30
2017-09-02T03:09:01.237Z,88.40
2017-09-02T03:11:28.805Z,88.40
2017-09-02T03:13:56.326Z,88.30
2017-09-02T03:16:23.852Z,88.10
2017-09-02T03:18:51.340Z,88.00
2017-09-02T03:21:18.845Z,87.90
2017-09-02T03:23:46.391Z,87.70
2017-09-02T03:26:13.901Z,87.50
2017-09-02T03:28:41.431Z,87.60
2017-09-02T03:31:08.961Z,87.70
2017-09-02T03:33:36.516Z,88.20
2017-09-02T03:36:04.072Z,88.60
2017-09-02T03:38:31.607Z,88.90
2017-09-02T03:40:59.130Z,89.00
2017-09-02T03:43:26.753Z,88.90
2017-09-02T03:45:54.250Z,88.80
2017-09-02T03:48:21.748Z,88.80
2017-09-02T03:50:49.304Z,88.90
2017-09-02T03:53:16.821Z,88.80
2017-09-02T03:55:44.343Z,88.70
2017-09-02T03:58:11.842Z,88.80
2017-09-02T04:00:39.456Z,88.90
2017-09-02T04:03:07.001Z,88.70
2017-09-02T04:05:34.574Z,88.70
2017-09-02T04:08:02.128Z,88.60
2017-09-02T04:10:29.631Z,88.70
2017-09-02T04:12:57.134Z,88.70
2017-09-02T04:15:24.660Z,88.70
2017-09-02T04:17:52.155Z,88.70
2017-09-02T04:20:19.706Z,88.90
2017-09-02T04:22:47.294Z,89.10
2017-09-02T04:25:14.796Z,89.10
2017-09-02T04:27:42.321Z,88.90
2017-09-02T04:30:09.832Z,88.70
2017-09-02T04:32:37.368Z,88.40
2017-09-02T04:35:04.976Z,88.70
2017-09-02T04:37:32.502Z,88.70
2017-09-02T04:40:00.016Z,88.40
2017-09-02T04:42:27.536Z,88.20
2017-09-02T04:44:55.110Z,88.40
2017-09-02T04:47:22.613Z,88.70
2017-09-02T04:49:50.133Z,88.80
2017-09-02T04:52:17.640Z,88.90
2017-09-02T04:54:45.236Z,88.80
2017-09-02T04:57:12.759Z,88.70
2017-09-02T04:59:40.243Z,88.70
2017-09-02T05:02:07.823Z,88.50
2017-09-02T05:04:35.325Z,88.50
2017-09-02T05:07:02.820Z,88.50
2017-09-02T05:09:30.364Z,88.40
2017-09-02T05:11:57.860Z,88.50
2017-09-02T05:14:25.393Z,88.40
2017-09-02T05:16:52.897Z,88.10
2017-09-02T05:19:20.418Z,88.10
2017-09-02T05:21:47.965Z,88.00
2017-09-02T05:24:15.520Z,88.00
2017-09-02T05:26:43.048Z,88.10
2017-09-02T05:29:10.552Z,88.80
2017-09-02T05:31:38.100Z,87.50
2017-09-02T05:34:05.656Z,87.90
2017-09-02T05:36:33.164Z,87.80
2017-09-02T05:39:00.683Z,87.90
2017-09-02T05:41:28.236Z,87.90
2017-09-02T05:43:55.793Z,86.90
2017-09-02T05:46:23.292Z,87.10
2017-09-02T05:48:50.829Z,87.10
2017-09-02T05:51:18.337Z,86.70
2017-09-02T05:53:45.841Z,86.60
2017-09-02T05:56:13.369Z,87.00
2017-09-02T05:58:40.878Z,87.50
2017-09-02T06:01:08.402Z,87.60
2017-09-02T06:03:35.893Z,87.80
2017-09-02T06:06:03.392Z,87.80
2017-09-02T06:08:30.915Z,87.60
2017-09-02T06:10:58.460Z,87.60
2017-09-02T06:13:25.990Z,87.70
2017-09-02T06:15:53.529Z,87.60
2017-09-02T06:18:21.025Z,87.60
2017-09-02T06:20:48.565Z,87.40
2017-09-02T06:23:16.072Z,87.00
2017-09-02T06:25:43.593Z,86.50
2017-09-02T06:28:11.114Z,86.20
2017-09-02T06:30:38.620Z,85.80
2017-09-02T06:33:06.132Z,85.30
2017-09-02T06:35:33.691Z,85.20
2017-09-02T06:38:01.209Z,84.90
2017-09-02T06:40:28.719Z,85.10
2017-09-02T06:42:56.256Z,85.00
2017-09-02T06:45:23.784Z,84.60
2017-09-02T06:47:51.289Z,84.60
2017-09-02T06:50:18.792Z,84.30
2017-09-02T06:52:46.342Z,84.60
2017-09-02T06:55:13.835Z,84.40
2017-09-02T06:57:41.517Z,84.30
2017-09-02T07:00:09.048Z,84.40
2017-09-02T07:02:36.589Z,84.50
2017-09-02T07:05:04.114Z,84.40
2017-09-02T07:07:31.617Z,84.50
2017-09-02T07:09:59.200Z,84.30
2017-09-02T07:12:26.700Z,84.00
2017-09-02T07:14:54.203Z,84.10
2017-09-02T07:17:21.744Z,83.90
2017-09-02T07:19:49.237Z,83.80
2017-09-02T07:22:16.732Z,83.50
2017-09-02T07:24:44.244Z,83.80
2017-09-02T07:27:11.740Z,83.60
2017-09-02T07:29:39.264Z,83.40
2017-09-02T07:32:06.796Z,83.40
2017-09-02T07:34:34.314Z,83.50
2017-09-02T07:37:01.830Z,83.10
2017-09-02T07:39:29.354Z,83.00
2017-09-02T07:41:56.853Z,83.00
2017-09-02T07:44:24.408Z,83.20
2017-09-02T07:46:51.933Z,83.30
2017-09-02T07:49:19.516Z,83.30
2017-09-02T07:51:47.089Z,83.20
2017-09-02T07:54:14.632Z,83.10
2017-09-02T07:56:42.162Z,82.30
2017-09-02T07:59:09.665Z,82.10
2017-09-02T08:01:37.187Z,81.80
2017-09-02T08:04:04.684Z,81.60
2017-09-02T08:06:32.216Z,81.90
2017-09-02T08:08:59.709Z,81.80
2017-09-02T08:11:27.253Z,82.00
2017-09-02T08:13:54.760Z,81.80
2017-09-02T08:16:22.261Z,81.20
2017-09-02T08:18:49.790Z,81.20
2017-09-02T08:21:17.338Z,80.70
2017-09-02T08:23:44.840Z,81.10
2017-09-02T08:26:12.394Z,80.80
2017-09-02T08:28:39.910Z,80.70
2017-09-02T08:31:07.421Z,80.70
2017-09-02T08:33:34.940Z,79.50
2017-09-02T08:36:02.538Z,79.40
2017-09-02T08:38:30.099Z,80.20
2017-09-02T08:40:57.609Z,79.30
2017-09-02T08:43:25.893Z,78.90
2017-09-02T08:45:53.468Z,78.90
2017-09-02T08:48:21.028Z,78.40
2017-09-02T08:50:48.546Z,78.80
2017-09-02T08:53:16.056Z,78.30
2017-09-02T08:55:43.613Z,78.10
2017-09-02T08:58:11.118Z,77.10
2017-09-02T09:00:38.712Z,74.60
2017-09-02T09:03:06.236Z,74.60
2017-09-02T09:05:33.755Z,75.00
2017-09-02T09:08:01.281Z,74.70
2017-09-02T09:10:28.820Z,75.40
2017-09-02T09:12:56.341Z,74.10
2017-09-02T09:15:23.848Z,73.30
2017-09-02T09:17:52.145Z,72.80
2017-09-02T09:20:19.661Z,72.70
2017-09-02T09:22:47.364Z,73.00
2017-09-02T09:25:14.869Z,73.80
2017-09-02T09:27:42.399Z,74.00
2017-09-02T09:30:09.923Z,72.70
2017-09-02T09:32:37.512Z,73.00
2017-09-02T09:35:05.057Z,72.50
2017-09-02T09:37:32.578Z,69.80
2017-09-02T09:40:00.176Z,71.40
2017-09-02T09:42:27.709Z,70.50
2017-09-02T09:44:55.279Z,70.90
2017-09-02T09:47:22.854Z,71.00
2017-09-02T09:49:50.345Z,69.20
2017-09-02T09:52:17.876Z,69.10
2017-09-02T09:54:45.422Z,69.20
2017-09-02T09:57:12.977Z,69.10
2017-09-02T09:59:40.481Z,66.00
2017-09-02T10:02:07.994Z,66.90
2017-09-02T10:04:35.654Z,66.90
2017-09-02T10:07:03.156Z,65.90
2017-09-02T10:09:30.685Z,65.60
2017-09-02T10:11:58.190Z,66.00
2017-09-02T10:14:25.701Z,67.30
2017-09-02T10:16:53.227Z,66.20
2017-09-02T10:19:20.720Z,64.50
2017-09-02T10:21:48.272Z,63.30
2017-09-02T10:24:15.772Z,64.00
2017-09-02T10:26:43.256Z,63.70
2017-09-02T10:29:10.824Z,61.90
2017-09-02T10:31:38.344Z,60.20
2017-09-02T10:34:05.865Z,60.60
2017-09-02T10:36:33.504Z,59.90
2017-09-02T10:39:01.082Z,57.90
2017-09-02T10:41:28.624Z,59.10
2017-09-02T10:43:56.129Z,59.20
2017-09-02T10:46:23.661Z,57.20
2017-09-02T10:48:51.161Z,58.40
2017-09-02T10:51:18.697Z,57.90
2017-09-02T10:53:47.701Z,57.90
2017-09-02T10:56:15.314Z,58.40
2017-09-02T10:58:42.845Z,57.70
2017-09-02T11:01:10.361Z,56.50
2017-09-02T11:03:37.872Z,57.40
2017-09-02T11:06:05.474Z,58.10
2017-09-02T11:08:32.993Z,58.00
2017-09-02T11:11:00.501Z,56.90
2017-09-02T11:13:28.016Z,56.40
2017-09-02T11:15:55.500Z,56.20
2017-09-02T11:18:23.026Z,55.90
2017-09-02T11:20:50.513Z,55.50
2017-09-02T11:23:18.042Z,55.70
2017-09-02T11:25:45.539Z,53.90
2017-09-02T11:28:13.028Z,53.70
2017-09-02T11:30:40.616Z,56.00
2017-09-02T11:33:08.129Z,55.70
2017-09-02T11:35:35.657Z,54.30
2017-09-02T11:38:03.157Z,53.30
2017-09-02T11:40:30.676Z,54.10
2017-09-02T11:42:58.177Z,53.90
2017-09-02T11:45:25.675Z,54.10
2017-09-02T11:47:53.204Z,54.70
2017-09-02T11:50:20.764Z,52.70
2017-09-02T11:52:48.276Z,54.60
2017-09-02T11:55:15.775Z,55.10
2017-09-02T11:57:43.297Z,56.00
2017-09-02T12:00:10.791Z,56.20
2017-09-02T12:02:38.288Z,56.60
2017-09-02T12:05:05.806Z,56.80
2017-09-02T12:07:33.321Z,57.70
2017-09-02T12:10:00.930Z,58.60
2017-09-02T12:12:28.442Z,60.60
2017-09-02T12:14:55.969Z,63.60
2017-09-02T12:17:23.470Z,63.90
2017-09-02T12:19:51.058Z,64.50
2017-09-02T12:22:18.579Z,65.70
2017-09-02T12:24:46.897Z,67.40
2017-09-02T12:27:14.438Z,67.40
2017-09-02T12:29:41.939Z,67.80
2017-09-02T12:32:09.465Z,67.50
2017-09-02T12:34:37.137Z,67.90
2017-09-02T12:37:04.678Z,66.20
2017-09-02T12:39:32.254Z,66.30
2017-09-02T12:41:59.770Z,65.50
2017-09-02T12:44:27.355Z,65.50
2017-09-02T12:46:54.898Z,65.80
2017-09-02T12:49:22.413Z,64.00
2017-09-02T12:51:50.035Z,62.90
2017-09-02T12:54:17.587Z,62.20
2017-09-02T12:56:45.150Z,64.40
2017-09-02T12:59:12.707Z,64.20
2017-09-02T13:01:40.241Z,64.70
2017-09-02T13:04:07.747Z,65.80
2017-09-02T13:06:36.263Z,66.30
2017-09-02T13:09:03.754Z,65.60
2017-09-02T13:11:31.338Z,66.40
2017-09-02T13:13:58.892Z,65.90
2017-09-02T13:16:26.431Z,66.70
2017-09-02T13:18:53.921Z,67.80
2017-09-02T13:21:21.408Z,67.10
2017-09-02T13:23:48.949Z,68.10
2017-09-02T13:26:16.439Z,67.10
2017-09-02T13:28:44.014Z,65.00
2017-09-02T13:31:11.533Z,62.90
2017-09-02T13:33:39.069Z,63.10
2017-09-02T13:36:06.570Z,63.00
2017-09-02T13:38:34.080Z,60.30
2017-09-02T13:41:01.598Z,59.60
2017-09-02T13:43:29.108Z,59.00
2017-09-02T13:45:56.709Z,56.90
2017-09-02T13:48:24.222Z,56.30
2017-09-02T13:50:51.755Z,54.20
2017-09-02T13:53:19.253Z,52.30
2017-09-02T13:55:46.785Z,54.30
2017-09-02T13:58:14.324Z,53.90
2017-09-02T14:00:41.887Z,53.00
2017-09-02T14:03:09.651Z,51.70
2017-09-02T14:05:37.163Z,50.30
2017-09-02T14:08:04.764Z,49.90
2017-09-02T14:10:32.296Z,47.50
2017-09-02T14:12:59.788Z,49.10
2017-09-02T14:15:27.281Z,49.50
2017-09-02T14:17:54.799Z,47.10
2017-09-02T14:20:22.346Z,47.80
2017-09-02T14:22:49.860Z,49.40
2017-09-02T14:25:17.389Z,48.30
2017-09-02T14:27:44.909Z,46.70
2017-09-02T14:30:12.464Z,47.50
2017-09-02T14:32:40.008Z,48.30
2017-09-02T14:35:07.516Z,48.60
2017-09-02T14:37:34.997Z,49.50
2017-09-02T14:40:02.539Z,49.20
2017-09-02T14:42:30.047Z,48.60
2017-09-02T14:44:57.569Z,49.20
2017-09-02T14:47:25.073Z,49.60
2017-09-02T14:49:52.580Z,47.80
2017-09-02T14:52:20.188Z,46.70
2017-09-02T14:54:47.704Z,47.30
2017-09-02T14:57:15.223Z,47.50
2017-09-02T14:59:42.766Z,47.10
2017-09-02T15:02:10.284Z,47.10
2017-09-02T15:04:37.783Z,46.20
2017-09-02T15:07:05.341Z,47.10
2017-09-02T15:09:32.904Z,46.70
2017-09-02T15:12:00.441Z,47.60
2017-09-02T15:14:27.950Z,47.90
2017-09-02T15:16:55.472Z,48.00
2017-09-02T15:19:22.995Z,48.30
2017-09-02T15:21:50.594Z,48.50
2017-09-02T15:24:18.113Z,48.40
2017-09-02T15:26:45.610Z,48.60
2017-09-02T15:29:13.143Z,49.00
2017-09-02T15:31:40.662Z,49.40
2017-09-02T15:34:08.193Z,48.70
2017-09-02T15:36:36.470Z,48.90
2017-09-02T15:39:03.997Z,48.90
2017-09-02T15:41:31.596Z,48.60
2017-09-02T15:43:59.100Z,49.00
2017-09-02T15:46:26.621Z,49.10
2017-09-02T15:48:54.117Z,49.10
2017-09-02T15:51:21.634Z,50.00
2017-09-02T15:53:49.144Z,50.40
2017-09-02T15:56:16.668Z,50.70
2017-09-02T15:58:44.185Z,51.50
2017-09-02T16:01:11.692Z,51.90
2017-09-02T16:03:39.207Z,51.70
2017-09-02T16:06:06.729Z,51.90
2017-09-02T16:08:34.284Z,51.60
2017-09-02T16:11:01.805Z,51.50
2017-09-02T16:13:29.373Z,51.70
2017-09-02T16:15:56.916Z,51.80
2017-09-02T16:18:24.441Z,51.80
2017-09-02T16:20:51.960Z,52.40
2017-09-02T16:23:20.256Z,53.10
2017-09-02T16:25:47.753Z,53.10
2017-09-02T16:28:15.241Z,53.00
2017-09-02T16:30:42.763Z,52.70
2017-09-02T16:33:10.276Z,52.90
2017-09-02T16:35:37.812Z,53.10
2017-09-02T16:38:05.318Z,53.10
2017-09-02T16:40:32.842Z,53.50
2017-09-02T16:43:00.369Z,53.70
2017-09-02T16:45:27.876Z,53.90
2017-09-02T16:47:55.393Z,54.30
2017-09-02T16:50:23.019Z,54.90
2017-09-02T16:52:50.559Z,54.80
2017-09-02T16:55:18.096Z,54.80
2017-09-02T16:57:45.605Z,54.80
2017-09-02T17:00:13.153Z,55.10
2017-09-02T17:02:40.653Z,55.70
2017-09-02T17:05:08.149Z,56.10
2017-09-02T17:07:35.677Z,56.00
2017-09-02T17:10:03.186Z,56.80
2017-09-02T17:12:30.709Z,57.80
2017-09-02T17:14:58.231Z,57.50
2017-09-02T17:17:25.761Z,57.70
2017-09-02T17:19:53.271Z,57.70
2017-09-02T17:22:20.765Z,58.00
2017-09-02T17:24:48.296Z,58.50
2017-09-02T17:27:15.796Z,59.00
2017-09-02T17:29:43.338Z,59.30
2017-09-02T17:32:10.861Z,59.70
2017-09-02T17:34:38.405Z,59.70
2017-09-02T17:37:05.923Z,59.80
2017-09-02T17:39:33.423Z,59.80
2017-09-02T17:42:00.950Z,59.90
2017-09-02T17:44:28.437Z,59.90
2017-09-02T17:46:55.969Z,59.90
2017-09-02T17:49:23.496Z,60.00
2017-09-02T17:51:51.043Z,60.10
2017-09-02T17:54:18.585Z,60.80
2017-09-02T17:56:46.092Z,60.90
2017-09-02T17:59:13.592Z,60.60
2017-09-02T18:01:41.140Z,61.50
2017-09-02T18:04:08.668Z,61.70
2017-09-02T18:06:36.198Z,62.40
2017-09-02T18:09:03.713Z,62.60
2017-09-02T18:11:31.208Z,62.60
2017-09-02T18:13:58.742Z,63.10
2017-09-02T18:16:26.263Z,64.30
2017-09-02T18:18:53.756Z,63.90
2017-09-02T18:21:21.286Z,64.10
2017-09-02T18:23:48.791Z,64.40
2017-09-02T18:26:16.279Z,65.40
2017-09-02T18:28:43.815Z,65.20
2017-09-02T18:31:11.317Z,65.40
2017-09-02T18:33:38.902Z,65.70
2017-09-02T18:36:06.402Z,65.40
2017-09-02T18:38:34.043Z,65.50
2017-09-02T18:41:01.543Z,65.60
2017-09-02T18:43:29.048Z,65.90
2017-09-02T18:45:56.580Z,66.20
2017-09-02T18:48:24.098Z,66.50
2017-09-02T18:50:51.631Z,66.30
2017-09-02T18:53:19.153Z,66.60
2017-09-02T18:55:46.672Z,66.70
2017-09-02T18:58:14.193Z,67.10
2017-09-02T19:00:41.695Z,67.10
2017-09-02T19:03:09.225Z,67.10
2017-09-02T19:05:36.734Z,67.10
2017-09-02T19:08:04.273Z,67.80
2017-09-02T19:10:31.803Z,68.00
2017-09-02T19:12:59.341Z,68.60
2017-09-02T19:15:26.865Z,68.20
2017-09-02T19:17:54.382Z,69.00
2017-09-02T19:20:21.930Z,69.50
2017-09-02T19:22:49.428Z,69.90
2017-09-02T19:25:16.955Z,70.10
2017-09-02T19:27:44.557Z,71.30
2017-09-02T19:30:12.068Z,70.70
2017-09-02T19:32:39.597Z,71.20
2017-09-02T19:35:07.106Z,71.00
2017-09-02T19:37:34.640Z,71.00
2017-09-02T19:40:02.141Z,71.40
2017-09-02T19:42:29.663Z,71.60
2017-09-02T19:44:57.194Z,71.80
2017-09-02T19:47:24.766Z,71.70
2017-09-02T19:49:52.297Z,71.60
2017-09-02T19:52:19.820Z,72.10
2017-09-02T19:54:47.423Z,72.60
2017-09-02T19:57:14.919Z,72.60
2017-09-02T19:59:42.467Z,72.80
2017-09-02T20:02:09.966Z,72.40
2017-09-02T20:04:37.468Z,72.50
2017-09-02T20:07:05.021Z,72.60
2017-09-02T20:09:32.534Z,72.90
2017-09-02T20:12:00.075Z,73.20
2017-09-02T20:14:27.589Z,73.50
2017-09-02T20:16:55.165Z,73.60
2017-09-02T20:19:22.685Z,74.10
2017-09-02T20:21:50.193Z,74.20
2017-09-02T20:24:17.760Z,74.10
2017-09-02T20:26:45.256Z,74.60
2017-09-02T20:29:12.820Z,74.40
2017-09-02T20:31:40.329Z,74.40
2017-09-02T20:34:07.851Z,74.80
2017-09-02T20:36:35.356Z,74.90
2017-09-02T20:39:02.884Z,74.90
2017-09-02T20:41:30.396Z,75.10
2017-09-02T20:43:57.893Z,75.40
2017-09-02T20:46:25.453Z,75.50
2017-09-02T20:48:52.978Z,75.70
2017-09-02T20:51:20.478Z,75.60
2017-09-02T20:53:48.003Z,75.80
2017-09-02T20:56:15.524Z,75.90
2017-09-02T20:58:43.078Z,75.90
2017-09-02T21:01:10.589Z,76.00
2017-09-02T21:03:38.132Z,76.10
2017-09-02T21:06:05.656Z,76.20
2017-09-02T21:08:33.190Z,76.30
2017-09-02T21:11:00.725Z,76.40
2017-09-02T21:13:28.242Z,76.50
2017-09-02T21:15:56.550Z,77.00
2017-09-02T21:18:24.068Z,77.80
2017-09-02T21:20:51.669Z,77.00
2017-09-02T21:23:19.225Z,77.20
2017-09-02T21:25:46.736Z,77.30
2017-09-02T21:28:14.251Z,77.50
2017-09-02T21:30:41.772Z,77.70
2017-09-02T21:33:09.286Z,77.40
2017-09-02T21:35:36.825Z,77.60
2017-09-02T21:38:04.332Z,77.70
2017-09-02T21:40:31.858Z,78.10
2017-09-02T21:42:59.362Z,78.20
2017-09-02T21:45:26.951Z,78.40
2017-09-02T21:47:54.453Z,78.60
2017-09-02T21:50:21.960Z,78.70
2017-09-02T21:52:49.525Z,78.70
2017-09-02T21:55:17.025Z,79.10
2017-09-02T21:57:44.559Z,78.90
2017-09-02T22:00:12.053Z,78.90
2017-09-02T22:02:39.602Z,79.00
2017-09-02T22:05:07.092Z,79.20
2017-09-02T22:07:34.647Z,79.20
2017-09-02T22:10:02.969Z,78.80
2017-09-02T22:12:30.507Z,78.80
2017-09-02T22:14:58.015Z,78.70
2017-09-02T22:17:25.516Z,78.80
2017-09-02T22:19:53.029Z,79.20
2017-09-02T22:22:20.609Z,79.30
2017-09-02T22:24:48.158Z,78.80
2017-09-02T22:27:15.757Z,79.10
2017-09-02T22:29:43.245Z,79.20
2017-09-02T22:32:10.760Z,79.20
2017-09-02T22:34:38.320Z,79.30
2017-09-02T22:37:05.821Z,79.40
2017-09-02T22:39:33.332Z,79.20
2017-09-02T22:42:00.877Z,79.20
2017-09-02T22:44:28.395Z,79.20
2017-09-02T22:46:55.981Z,79.50
2017-09-02T22:49:23.495Z,79.40
2017-09-02T22:51:51.005Z,80.20
2017-09-02T22:54:18.582Z,79.40
2017-09-02T22:56:46.109Z,79.30
2017-09-02T22:59:13.625Z,79.60
2017-09-02T23:01:41.139Z,79.70
2017-09-02T23:04:08.648Z,79.80
2017-09-02T23:06:36.190Z,80.10
2017-09-02T23:09:03.696Z,80.00
2017-09-02T23:11:31.192Z,80.20
2017-09-02T23:13:58.711Z,80.40
2017-09-02T23:16:26.281Z,80.40
2017-09-02T23:18:53.822Z,80.50
2017-09-02T23:21:21.403Z,80.50
2017-09-02T23:23:48.921Z,80.50
2017-09-02T23:26:16.441Z,80.40
2017-09-02T23:28:45.068Z,80.40
2017-09-02T23:31:12.618Z,80.40
2017-09-02T23:33:40.130Z,80.60
2017-09-02T23:36:07.633Z,80.50
2017-09-02T23:38:35.161Z,80.60
2017-09-02T23:41:02.662Z,80.70
2017-09-02T23:43:30.169Z,80.70
2017-09-02T23:45:57.688Z,80.80
2017-09-02T23:48:25.215Z,80.80
2017-09-02T23:50:52.728Z,81.10
2017-09-02T23:53:20.280Z,80.90
2017-09-02T23:55:47.836Z,81.00
2017-09-02T23:58:15.352Z,80.70
